createdAt,value
2023-05-09T00:00:12.542Z,8.90
2023-05-09T00:04:17.675Z,8.02
2023-05-09T00:08:27.886Z,9.10
2023-05-09T00:12:31.095Z,7.97
2023-05-09T00:16:34.085Z,9.43
2023-05-09T00:20:38.417Z,9.50
2023-05-09T00:24:41.640Z,9.50
2023-05-09T00:28:44.652Z,8.30
2023-05-09T00:32:47.526Z,8.82
2023-05-09T00:36:51.815Z,7.85
2023-05-09T00:40:54.546Z,8.30
2023-05-09T00:44:57.350Z,10.18
2023-05-09T00:49:00.158Z,8.15
2023-05-09T00:53:04.778Z,7.35
2023-05-09T00:57:07.834Z,6.63
2023-05-09T01:01:10.945Z,4.80
2023-05-09T01:05:14.583Z,4.82
2023-05-09T01:09:24.042Z,6.18
2023-05-09T01:13:33.753Z,5.63
2023-05-09T01:17:41.645Z,6.13
2023-05-09T01:21:45.992Z,5.82
2023-05-09T01:25:57.044Z,7.72
2023-05-09T01:30:02.496Z,12.80
2023-05-09T01:34:06.595Z,6.57
2023-05-09T01:38:14.158Z,6.18
2023-05-09T01:42:18.474Z,5.65
2023-05-09T01:46:23.527Z,16.15
2023-05-09T01:50:26.557Z,6.03
2023-05-09T01:54:29.983Z,16.52
2023-05-09T02:02:48.034Z,7.57
2023-05-09T02:06:52.440Z,10.85
2023-05-09T02:10:55.246Z,10.00
2023-05-09T02:14:58.270Z,8.55
2023-05-09T02:19:02.584Z,8.02
2023-05-09T02:23:05.680Z,9.32
2023-05-09T02:27:08.985Z,12.35
2023-05-09T02:31:26.151Z,10.45
2023-05-09T02:35:30.406Z,12.57
2023-05-09T02:39:33.339Z,15.73
2023-05-09T02:43:36.054Z,11.50
2023-05-09T02:47:39.367Z,27.50
2023-05-09T02:55:46.255Z,11.23
2023-05-09T02:59:49.353Z,10.55
2023-05-09T03:03:52.441Z,11.52
2023-05-09T03:07:56.713Z,10.40
2023-05-09T03:11:59.565Z,10.55
2023-05-09T03:16:02.458Z,10.82
2023-05-09T03:20:07.763Z,13.65
2023-05-09T03:24:12.079Z,11.55
2023-05-09T03:28:22.019Z,11.05
2023-05-09T03:32:24.913Z,15.77
2023-05-09T03:36:27.603Z,13.85
2023-05-09T03:40:34.269Z,10.30
2023-05-09T03:44:37.083Z,11.82
2023-05-09T03:48:39.892Z,17.13
2023-05-09T03:52:42.582Z,16.55
2023-05-09T03:56:46.783Z,25.35
2023-05-09T04:00:50.354Z,19.10
2023-05-09T04:05:21.058Z,26.45
2023-05-09T04:09:23.792Z,14.75
2023-05-09T04:13:28.228Z,17.35
2023-05-09T04:17:31.596Z,13.52
2023-05-09T04:21:34.607Z,15.30
2023-05-09T04:25:37.431Z,15.05
2023-05-09T04:29:42.095Z,13.48
2023-05-09T04:33:52.236Z,10.73
2023-05-09T04:37:55.061Z,15.23
2023-05-09T04:41:58.106Z,13.82
2023-05-09T04:46:02.649Z,18.50
2023-05-09T04:50:12.194Z,12.43
2023-05-09T04:54:14.928Z,13.40
2023-05-09T04:58:17.774Z,19.83
2023-05-09T05:02:22.710Z,12.38
2023-05-09T05:06:25.642Z,13.18
2023-05-09T05:10:28.437Z,13.10
2023-05-09T05:14:31.467Z,14.85
2023-05-09T05:18:35.696Z,17.70
2023-05-09T05:22:38.730Z,16.23
2023-05-09T05:26:41.759Z,20.15
2023-05-09T05:30:44.908Z,18.25
2023-05-09T05:35:17.974Z,20.38
2023-05-09T05:39:21.080Z,15.10
2023-05-09T05:43:23.914Z,18.45
2023-05-09T05:47:27.078Z,13.32
2023-05-09T05:51:31.697Z,13.82
2023-05-09T05:55:34.601Z,14.20
2023-05-09T05:59:37.948Z,13.85
2023-05-09T06:07:45.584Z,12.90
2023-05-09T06:11:48.549Z,13.70
2023-05-09T06:16:07.783Z,12.93
2023-05-09T06:20:18.230Z,13.32
2023-05-09T06:24:34.523Z,14.48
2023-05-09T06:28:38.744Z,14.70
2023-05-09T06:32:41.684Z,15.82
2023-05-09T06:36:44.926Z,16.35
2023-05-09T06:40:48.959Z,14.52
2023-05-09T06:44:51.836Z,14.63
2023-05-09T06:48:54.524Z,13.15
2023-05-09T06:52:57.210Z,16.30
2023-05-09T06:57:01.415Z,14.90
2023-05-09T07:01:04.511Z,13.57
2023-05-09T07:05:08.066Z,13.02
2023-05-09T07:09:11.425Z,13.00
2023-05-09T07:13:15.955Z,11.85
2023-05-09T07:17:23.494Z,11.45
2023-05-09T07:21:27.229Z,11.55
2023-05-09T07:25:29.929Z,9.93
2023-05-09T07:29:34.716Z,13.93
2023-05-09T07:33:37.727Z,13.07
2023-05-09T07:37:40.694Z,11.38
2023-05-09T07:41:44.233Z,9.80
2023-05-09T07:45:48.530Z,8.95
2023-05-09T07:49:51.381Z,8.82
2023-05-09T07:53:56.257Z,7.40
2023-05-09T07:57:59.608Z,7.80
2023-05-09T08:02:03.918Z,9.48
2023-05-09T08:06:07.054Z,7.45
2023-05-09T08:10:11.276Z,6.68
2023-05-09T08:14:15.668Z,6.25
2023-05-09T08:18:20.069Z,6.28
2023-05-09T08:22:24.777Z,6.45
2023-05-09T08:26:27.926Z,5.40
2023-05-09T08:30:31.111Z,4.97
2023-05-09T08:34:35.568Z,4.80
2023-05-09T08:38:40.581Z,5.07
2023-05-09T08:42:46.062Z,4.10
2023-05-09T08:46:50.334Z,3.72
2023-05-09T08:50:54.719Z,3.85
2023-05-09T08:54:57.959Z,3.25
2023-05-09T08:59:01.234Z,3.25
2023-05-09T09:03:04.629Z,2.97
2023-05-09T09:07:09.506Z,3.33
2023-05-09T09:11:13.749Z,3.33
2023-05-09T09:15:18.940Z,3.60
2023-05-09T09:19:23.839Z,2.58
2023-05-09T09:23:28.673Z,2.88
2023-05-09T09:27:32.913Z,3.00
2023-05-09T09:31:35.977Z,2.30
2023-05-09T09:35:39.932Z,2.25
2023-05-09T09:39:55.030Z,2.20
2023-05-09T09:43:58.869Z,2.17
2023-05-09T09:48:07.892Z,2.03
2023-05-09T09:52:11.022Z,2.17
2023-05-09T09:56:15.632Z,2.10
2023-05-09T10:00:21.315Z,1.90
2023-05-09T10:04:24.869Z,1.73
2023-05-09T10:08:27.708Z,1.92
2023-05-09T10:16:51.114Z,1.90
2023-05-09T10:20:55.170Z,2.17
2023-05-09T10:25:04.426Z,1.80
2023-05-09T10:29:12.039Z,1.90
2023-05-09T10:33:17.369Z,2.00
2023-05-09T10:37:22.345Z,1.80
2023-05-09T10:41:25.764Z,2.00
2023-05-09T10:45:30.295Z,1.73
2023-05-09T10:49:55.001Z,6.95
2023-05-09T10:53:58.016Z,1.80
2023-05-09T10:58:19.708Z,2.00
2023-05-09T11:02:29.507Z,2.00
2023-05-09T11:06:44.570Z,1.67
2023-05-09T11:10:48.088Z,2.00
2023-05-09T11:14:52.248Z,1.95
2023-05-09T11:18:57.379Z,1.90
2023-05-09T11:23:00.611Z,2.60
2023-05-09T11:27:15.606Z,1.88
2023-05-09T11:31:19.809Z,1.85
2023-05-09T11:35:26.839Z,1.80
2023-05-09T11:39:31.339Z,2.10
2023-05-09T11:43:34.234Z,1.60
2023-05-09T11:47:37.743Z,1.73
2023-05-09T11:51:42.977Z,1.90
2023-05-09T11:55:45.995Z,1.88
2023-05-09T11:59:49.663Z,1.80
2023-05-09T12:03:53.167Z,1.90
2023-05-09T12:07:58.597Z,1.73
2023-05-09T12:12:02.299Z,1.75
2023-05-09T12:16:06.467Z,1.70
2023-05-09T12:20:10.629Z,1.75
2023-05-09T12:24:15.362Z,1.80
2023-05-09T12:28:19.073Z,2.00
2023-05-09T12:32:22.434Z,2.08
2023-05-09T12:36:26.545Z,1.63
2023-05-09T12:40:32.082Z,1.70
2023-05-09T12:44:35.062Z,1.88
2023-05-09T12:48:39.271Z,1.88
2023-05-09T12:52:54.697Z,1.70
2023-05-09T12:57:22.807Z,1.77
2023-05-09T13:01:29.554Z,1.80
2023-05-09T13:05:33.886Z,1.90
2023-05-09T13:09:37.083Z,1.60
2023-05-09T13:13:41.804Z,1.80
2023-05-09T13:17:44.877Z,1.65
2023-05-09T13:21:47.987Z,1.90
2023-05-09T13:25:51.543Z,1.80
2023-05-09T13:29:57.662Z,1.60
2023-05-09T13:34:00.909Z,1.92
2023-05-09T13:38:04.212Z,2.00
2023-05-09T13:42:07.378Z,2.10
2023-05-09T13:46:12.040Z,2.38
2023-05-09T13:50:15.486Z,2.13
2023-05-09T13:54:19.850Z,2.30
2023-05-09T13:58:23.042Z,2.40
2023-05-09T14:02:27.617Z,2.80
2023-05-09T14:06:30.761Z,2.85
2023-05-09T14:14:37.950Z,3.13
2023-05-09T14:18:42.603Z,3.78
2023-05-09T14:22:45.637Z,3.85
2023-05-09T14:26:48.683Z,5.05
2023-05-09T14:30:53.266Z,4.38
2023-05-09T14:34:58.198Z,4.47
2023-05-09T14:39:03.343Z,4.47
2023-05-09T14:43:06.992Z,5.57
2023-05-09T14:47:10.752Z,4.57
2023-05-09T14:51:15.495Z,4.72
2023-05-09T14:55:31.427Z,6.55
2023-05-09T14:59:36.847Z,5.28
2023-05-09T15:03:40.295Z,5.88
2023-05-09T15:11:49.050Z,5.25
2023-05-09T15:15:53.204Z,9.60
2023-05-09T15:19:56.148Z,5.72
2023-05-09T15:24:00.555Z,4.60
2023-05-09T15:28:03.554Z,4.28
2023-05-09T15:32:07.085Z,4.95
2023-05-09T15:36:10.477Z,6.10
2023-05-09T15:40:15.604Z,4.50
2023-05-09T15:44:19.041Z,4.03
2023-05-09T15:48:22.292Z,4.10
2023-05-09T15:52:25.286Z,4.00
2023-05-09T15:56:30.157Z,6.43
2023-05-09T16:00:41.278Z,4.43
2023-05-09T16:04:44.299Z,4.15
2023-05-09T16:08:47.739Z,4.15
2023-05-09T16:12:51.972Z,3.65
2023-05-09T16:17:16.646Z,4.28
2023-05-09T16:21:20.055Z,3.83
2023-05-09T16:25:23.692Z,3.33
2023-05-09T16:29:38.663Z,3.30
2023-05-09T16:33:44.087Z,3.28
2023-05-09T16:37:47.881Z,3.78
2023-05-09T16:41:50.675Z,3.60
2023-05-09T16:45:55.065Z,3.47
2023-05-09T16:50:28.953Z,1.80
2023-05-09T16:54:32.262Z,2.10
2023-05-09T16:58:43.152Z,2.03
2023-05-09T17:02:47.437Z,1.83
2023-05-09T17:06:51.719Z,4.53
2023-05-09T17:10:54.512Z,1.52
2023-05-09T17:14:57.390Z,1.50
2023-05-09T17:19:01.827Z,1.00
2023-05-09T17:23:05.361Z,1.25
2023-05-09T17:27:30.730Z,0.68
2023-05-09T17:31:35.309Z,1.20
2023-05-09T17:35:39.578Z,0.98
2023-05-09T17:40:14.909Z,1.20
2023-05-09T17:44:18.718Z,1.35
2023-05-09T17:48:23.943Z,1.13
2023-05-09T17:52:29.561Z,1.00
2023-05-09T17:56:32.424Z,1.27
2023-05-09T18:00:35.969Z,0.95
2023-05-09T18:04:39.554Z,1.20
2023-05-09T18:08:43.605Z,1.00
2023-05-09T18:12:55.572Z,1.20
2023-05-09T18:16:58.408Z,1.00
2023-05-09T18:21:01.172Z,1.35
2023-05-09T18:25:06.088Z,1.10
2023-05-09T18:29:09.549Z,1.38
2023-05-09T18:33:12.930Z,1.25
2023-05-09T18:41:22.059Z,1.42
2023-05-09T18:45:25.010Z,1.40
2023-05-09T18:49:44.084Z,2.15
2023-05-09T18:53:48.090Z,2.05
2023-05-09T18:57:52.413Z,2.75
2023-05-09T19:01:55.274Z,4.90
2023-05-09T19:05:59.435Z,2.50
2023-05-09T19:10:03.907Z,2.10
2023-05-09T19:14:10.264Z,1.92
2023-05-09T19:18:14.215Z,2.00
2023-05-09T19:22:17.450Z,2.15
2023-05-09T19:26:37.897Z,2.50
2023-05-09T19:30:42.422Z,1.80
2023-05-09T19:34:54.221Z,1.83
2023-05-09T19:38:57.090Z,1.58
2023-05-09T19:43:01.499Z,1.55
2023-05-09T19:47:06.200Z,1.35
2023-05-09T19:51:16.954Z,1.50
2023-05-09T19:55:27.921Z,1.30
2023-05-09T19:59:45.517Z,1.40
2023-05-09T20:03:52.212Z,1.80
2023-05-09T20:07:58.255Z,1.55
2023-05-09T20:12:04.771Z,1.77
2023-05-09T20:16:07.733Z,1.85
2023-05-09T20:20:17.240Z,1.52
2023-05-09T20:28:23.022Z,3.17
2023-05-09T20:32:26.383Z,2.53
2023-05-09T20:36:30.661Z,2.40
2023-05-09T20:40:33.505Z,2.83
2023-05-09T20:44:37.674Z,2.40
2023-05-09T20:48:40.598Z,3.13
2023-05-09T20:52:44.740Z,2.20
2023-05-09T20:56:48.082Z,2.60
2023-05-09T21:01:12.773Z,3.40
2023-05-09T21:05:15.669Z,3.25
2023-05-09T21:09:20.433Z,4.18
2023-05-09T21:13:23.488Z,2.53
2023-05-09T21:17:26.680Z,3.63
2023-05-09T21:21:29.635Z,3.30
2023-05-09T21:25:33.939Z,4.75
2023-05-09T21:30:02.468Z,3.00
2023-05-09T21:34:10.045Z,4.07
2023-05-09T21:38:13.264Z,2.80
2023-05-09T21:42:17.481Z,2.65
2023-05-09T21:46:20.755Z,2.40
2023-05-09T21:54:36.153Z,2.58
2023-05-09T21:58:40.416Z,1.65
2023-05-09T22:02:44.232Z,2.10
2023-05-09T22:06:47.137Z,1.90
2023-05-09T22:10:50.054Z,2.03
2023-05-09T22:14:56.706Z,1.92
2023-05-09T22:18:59.917Z,1.60
2023-05-09T22:23:03.084Z,1.55
2023-05-09T22:27:06.453Z,1.60
2023-05-09T22:35:13.547Z,1.80
2023-05-09T22:39:16.521Z,2.42
2023-05-09T22:43:20.161Z,2.15
2023-05-09T22:47:24.661Z,2.97
2023-05-09T22:51:27.758Z,2.85
2023-05-09T22:55:30.850Z,1.88
2023-05-09T22:59:33.546Z,1.77
2023-05-09T23:03:37.965Z,1.50
2023-05-09T23:07:40.624Z,1.50
2023-05-09T23:11:43.299Z,1.90
2023-05-09T23:15:46.076Z,2.35
2023-05-09T23:19:50.277Z,1.65
2023-05-09T23:23:53.032Z,1.80
2023-05-09T23:27:56.050Z,1.80
2023-05-09T23:31:58.693Z,2.85
2023-05-09T23:36:02.973Z,1.80
2023-05-09T23:40:06.484Z,2.83
2023-05-09T23:44:09.148Z,1.70
2023-05-09T23:48:11.822Z,1.98
2023-05-09T23:52:15.889Z,1.50
2023-05-09T23:56:18.690Z,1.80
